Latest Weather Observations for West Wyalong

IDN60801

Issued at 9:34 pm EDT Friday 19 December 2014 (issued every 30 minutes, with the page automatically refreshed every 10 minutes)

About weather observations | Map of weather stations | Latest weather observations for NSW | Other Formats
Station Details ID: 050017 Name: WEST WYALONG AIRPORT AWS Lat: -33.94 Lon: 147.20 Height: 257.0 m
Data from the previous 72 hours. | See also: Recent months for locations in New South Wales
Date/Time
EDT
Temp
°C
App
Temp
°C
Dew
Point
Rel
Hum
%
Delta-T
°C
Wind Press
QNH
hPa
Press
MSL
hPa
Rain
since 9 am
mm
Dir
 
Spd
km/h
Gust
km/h
Spd
kts
Gust
kts
19/09:30pm 20.3 16.0 0.7 27 8.9 SW 13 19 7 10 1016.3 1015.2 0.0
19/09:00pm 21.2 16.0 0.4 25 9.5 SW 17 20 9 11 1015.9 1014.8 0.0
19/08:30pm 22.1 16.5 0.0 23 10.1 SW 19 24 10 13 1015.7 1014.6 0.0
19/08:00pm 23.0 16.0 -0.5 21 10.7 SW 26 32 14 17 1015.6 1014.5 0.0
19/07:30pm 23.8 16.7 -1.2 19 11.3 SW 26 33 14 18 1015.3 1014.2 0.0
19/07:00pm 24.6 17.4 -2.0 17 11.9 SW 26 35 14 19 1015.0 1013.9 0.0
19/06:30pm 25.1 18.0 -1.6 17 12.1 SW 26 37 14 20 1014.6 1013.4 0.0
19/06:00pm 26.0 18.9 -0.9 17 12.4 SW 26 39 14 21 1014.3 1013.1 0.0
19/05:30pm 25.9 18.8 -1.0 17 12.4 WSW 26 39 14 21 1014.0 1012.8 0.0
19/05:00pm 25.0 17.8 -1.7 17 12.1 SW 26 39 14 21 1014.1 1012.9 0.0
19/04:30pm 25.1 16.8 -1.6 17 12.1 WSW 32 44 17 24 1014.3 1013.1 0.0
19/04:00pm 25.9 18.8 -1.0 17 12.4 SW 26 54 14 29 1014.3 1013.1 0.0
19/03:30pm 25.6 18.8 -2.1 16 12.5 SW 24 35 13 19 1014.5 1013.3 0.0
19/03:00pm 25.0 17.5 -1.7 17 12.0 SW 28 39 15 21 1014.7 1013.5 0.0
19/02:30pm 24.4 17.5 -3.0 16 12.0 WSW 24 37 13 20 1014.9 1013.8 0.0
19/02:00pm 24.4 17.6 -2.2 17 11.8 WSW 24 33 13 18 1015.1 1014.0 0.0
19/01:30pm 23.8 17.1 -1.2 19 11.3 WSW 24 35 13 19 1015.4 1014.3 0.0
19/01:00pm 23.3 16.7 -0.2 21 10.8 WSW 24 37 13 20 1015.4 1014.3 0.0
19/12:30pm 22.5 16.9 1.5 25 9.9 SSW 20 33 11 18 1015.6 1014.5 0.0
19/12:00pm 21.2 15.3 1.5 27 9.2 SW 22 37 12 20 1015.8 1014.7 0.0
19/11:30am 22.1 16.0 2.8 28 9.3 WSW 24 37 13 20 1015.8 1014.7 0.0
19/11:00am 20.9 14.8 2.7 30 8.6 SW 24 41 13 22 1015.9 1014.8 0.0
19/10:30am 20.3 14.3 3.5 33 8.1 SW 24 39 13 21 1015.9 1014.8 0.0
19/10:00am 20.3 14.6 4.8 36 7.6 SSW 24 39 13 21 1015.9 1014.8 0.0
19/09:30am 19.4 14.0 4.3 37 7.3 SSW 22 33 12 18 1015.7 1014.6 0.0
19/09:00am 18.9 13.0 3.9 37 7.2 SSW 24 33 13 18 1015.6 1014.5 0.0
19/08:30am 18.3 13.2 4.1 39 6.8 S 20 30 11 16 1015.4 1014.3 0.0
19/08:00am 16.9 12.4 6.1 49 5.3 SSW 19 26 10 14 1015.0 1013.9 0.0
19/07:30am 16.0 10.9 6.2 52 4.8 SSW 22 28 12 15 1014.7 1013.5 0.0
19/07:00am 15.3 11.3 6.6 56 4.3 SW 17 22 9 12 1014.1 1012.9 0.0
19/06:30am 14.1 10.5 6.7 61 3.6 SW 15 19 8 10 1013.6 1012.4 0.0
19/06:00am 13.7 10.1 6.8 63 3.4 SW 15 17 8 9 1013.4 1012.2 0.0
19/05:30am 13.8 10.6 6.7 62 3.5 SW 13 17 7 9 1013.1 1011.9 0.0
19/05:00am 14.8 11.2 6.6 58 4.0 SSW 15 20 8 11 1012.8 1011.7 0.0
19/04:30am 15.2 12.0 6.7 57 4.2 SSW 13 17 7 9 1012.5 1011.4 0.0
19/04:00am 15.9 11.9 6.6 54 4.6 SSW 17 24 9 13 1012.1 1011.0 0.0
19/03:30am 16.7 12.2 6.8 52 5.0 SSW 20 32 11 17 1011.9 1010.8 0.0
19/03:00am 17.2 12.7 7.0 51 5.1 SSW 20 26 11 14 1011.8 1010.7 0.0
19/02:30am 17.8 12.9 7.0 49 5.5 SSW 22 32 12 17 1011.6 1010.5 0.0
19/02:00am 18.1 14.5 6.6 47 5.8 SSW 15 20 8 11 1011.7 1010.6 0.0
19/01:30am 18.8 13.5 6.6 45 6.2 SSW 24 32 13 17 1011.4 1010.3 0.0
19/01:00am 19.5 13.7 6.3 42 6.7 SSW 26 35 14 19 1011.4 1010.3 0.0
19/12:30am 20.1 15.2 5.0 37 7.5 SSW 20 28 11 15 1011.3 1010.1 0.0
19/12:00am 21.3 14.6 3.5 31 8.6 SSW 28 41 15 22 1011.0 1009.8 0.0
 
Date/Time
EDT
Temp
°C
App
Temp
°C
Dew
Point
Rel
Hum
%
Delta-T
°C
Wind Press
QNH
hPa
Press
MSL
hPa
Rain
since 9 am
mm
Dir
 
Spd
km/h
Gust
km/h
Spd
kts
Gust
kts
18/11:30pm 21.9 16.9 3.6 30 8.9 SW 19 24 10 13 1010.6 1009.4 0.0
18/11:00pm 22.6 17.5 3.2 28 9.4 SW 19 26 10 14 1010.6 1009.4 0.0
18/10:30pm 23.6 16.5 3.5 27 9.9 SW 30 41 16 22 1010.3 1009.1 0.0
18/10:00pm 24.1 16.9 2.9 25 10.4 SW 30 39 16 21 1010.1 1008.9 0.0
18/09:30pm 25.1 17.9 3.1 24 10.9 SW 30 43 16 23 1009.4 1008.2 0.0
18/09:00pm 26.2 18.4 1.5 20 12.0 SW 32 43 17 23 1008.7 1007.6 0.0
18/08:30pm 27.2 19.5 0.1 17 12.9 SW 30 41 16 22 1008.1 1007.0 0.0
18/08:00pm 28.4 21.0 -0.7 15 13.8 SW 28 39 15 21 1007.6 1006.4 0.0
18/07:30pm 29.7 21.8 -1.6 13 14.7 WSW 30 39 16 21 1007.2 1006.0 0.0
18/07:00pm 30.0 21.6 -1.4 13 14.9 WSW 33 46 18 25 1006.8 1005.6 0.0
18/06:30pm 30.9 22.4 -3.0 11 15.7 W 32 44 17 24 1006.6 1005.4 0.0
18/06:00pm 31.6 22.5 -3.7 10 16.2 WSW 35 54 19 29 1006.4 1005.2 0.0
18/05:51pm 31.3 23.5 -3.9 10 16.1 WSW 28 50 15 27 1006.3 1005.1 0.0
18/05:30pm 31.5 23.9 -2.5 11 15.9 WSW 28 44 15 24 1006.3 1005.1 0.0
18/05:00pm 31.1 22.5 -2.8 11 15.8 WSW 33 44 18 24 1006.5 1005.3 0.0
18/04:30pm 31.8 23.3 -3.5 10 16.3 W 32 56 17 30 1006.6 1005.4 0.0
18/04:06pm 32.2 23.7 -3.2 10 16.5 WSW 32 50 17 27 1006.7 1005.5 0.0
18/04:00pm 31.7 23.9 -3.6 10 16.3 WSW 28 43 15 23 1006.8 1005.6 0.0
18/03:30pm 31.8 23.3 -3.5 10 16.3 WSW 32 54 17 29 1006.7 1005.5 0.0
18/03:04pm 32.3 24.7 -1.9 11 16.3 WSW 28 50 15 27 1006.7 1005.5 0.0
18/03:00pm 31.8 24.2 -2.3 11 16.1 WSW 28 43 15 23 1006.8 1005.6 0.0
18/02:35pm 31.4 23.7 -2.6 11 15.9 W 28 50 15 27 1006.6 1005.4 0.0
18/02:30pm 31.5 23.7 -3.8 10 16.2 WNW 28 41 15 22 1006.7 1005.5 0.0
18/02:08pm 31.1 23.8 -2.8 11 15.7 WSW 26 48 14 26 1006.9 1005.7 0.0
18/02:00pm 31.2 23.5 -2.7 11 15.8 W 28 39 15 21 1007.1 1005.9 0.0
18/01:30pm 30.9 24.6 -0.7 13 15.2 WSW 22 43 12 23 1007.3 1006.1 0.0
18/01:00pm 30.0 24.2 -1.4 13 14.8 WSW 19 28 10 15 1007.6 1006.4 0.0
18/12:30pm 29.3 22.2 -0.9 14 14.3 W 26 35 14 19 1007.8 1006.6 0.0
18/12:00pm 28.2 22.3 -0.9 15 13.7 SW 20 32 11 17 1008.0 1006.9 0.0
18/11:30am 27.3 22.9 0.1 17 12.9 WSW 13 22 7 12 1008.4 1007.3 0.0
18/11:00am 27.3 20.9 0.9 18 12.7 WSW 24 35 13 19 1008.7 1007.6 0.0
18/10:30am 25.7 22.9 1.8 21 11.6 SW 6 17 3 9 1008.7 1007.6 0.0
18/10:00am 24.9 22.8 5.7 29 9.9 E 6 11 3 6 1008.7 1007.6 0.0
18/09:30am 23.0 20.5 6.7 35 8.5 NE 9 13 5 7 1009.0 1007.8 0.0
18/09:00am 21.3 19.7 8.2 43 6.9 ENE 6 9 3 5 1009.2 1008.0 0.0
18/08:30am 19.9 18.1 9.5 51 5.6 E 9 13 5 7 1009.0 1007.8 0.0
18/08:00am 18.3 16.2 9.6 57 4.7 ENE 11 17 6 9 1008.9 1007.7 0.0
18/07:30am 16.9 14.3 9.3 61 4.0 E 13 19 7 10 1008.6 1007.5 0.0
18/07:00am 15.5 14.8 6.8 56 4.3 CALM 0 7 0 4 1008.6 1007.5 0.0
18/06:30am 12.7 11.5 4.7 58 3.7 CALM 0 0 0 0 1008.7 1007.6 0.0
18/06:00am 12.0 9.4 3.3 55 3.9 WSW 6 9 3 5 1008.4 1007.3 0.0
18/05:30am 12.5 10.0 3.5 54 4.1 SSE 6 6 3 3 1007.9 1006.8 0.0
18/05:00am 12.9 10.5 5.3 60 3.6 SE 7 9 4 5 1007.4 1006.2 0.0
18/04:30am 13.5 11.1 5.2 57 3.9 ESE 7 11 4 6 1007.2 1006.0 0.0
18/04:00am 14.8 11.7 3.6 47 5.2 SE 9 13 5 7 1006.8 1005.6 0.0
18/03:30am 14.4 11.2 -0.5 36 6.3 SSE 6 7 3 4 1006.8 1005.6 0.0
18/03:00am 14.8 11.6 -0.5 35 6.5 SW 6 7 3 4 1006.8 1005.6 0.0
18/02:30am 16.0 12.7 -1.1 31 7.2 SW 6 7 3 4 1006.7 1005.5 0.0
18/02:00am 16.5 13.0 -1.1 30 7.5 SSW 7 9 4 5 1006.9 1005.7 0.0
18/01:30am 16.8 13.0 -0.9 30 7.6 SW 9 11 5 6 1007.2 1006.0 0.0
18/01:00am 15.7 11.9 -0.5 33 6.9 WSW 9 11 5 6 1007.3 1006.1 0.0
18/12:30am 16.0 12.7 -1.1 31 7.2 SW 6 7 3 4 1007.1 1005.9 0.0
18/12:00am 17.7 14.4 -1.0 28 8.1 WSW 6 9 3 5 1007.3 1006.1 0.0
 
Date/Time
EDT
Temp
°C
App
Temp
°C
Dew
Point
Rel
Hum
%
Delta-T
°C
Wind Press
QNH
hPa
Press
MSL
hPa
Rain
since 9 am
mm
Dir
 
Spd
km/h
Gust
km/h
Spd
kts
Gust
kts
17/11:30pm 18.5 14.6 -1.3 26 8.5 SW 9 11 5 6 1007.4 1006.2 0.0
17/11:00pm 19.3 15.4 -1.7 24 9.1 WSW 9 11 5 6 1007.3 1006.1 0.0
17/10:30pm 18.9 14.9 -2.1 24 8.9 SW 9 11 5 6 1007.3 1006.1 0.0
17/10:00pm 19.9 16.0 -1.8 23 9.4 WSW 9 11 5 6 1007.2 1006.0 0.0
17/09:30pm 19.6 15.2 -2.1 23 9.3 SW 11 11 6 6 1007.3 1006.1 0.0
17/09:00pm 21.6 17.6 -2.3 20 10.4 WSW 9 11 5 6 1007.1 1005.9 0.0
17/08:30pm 23.4 19.2 -3.8 16 11.6 WSW 9 13 5 7 1006.9 1005.7 0.0
17/08:00pm 25.2 20.5 -5.1 13 12.9 WSW 11 15 6 8 1006.6 1005.4 0.0
17/07:30pm 27.1 22.7 -5.9 11 14.0 W 9 15 5 8 1006.1 1004.9 0.0
17/07:00pm 27.7 22.5 -6.6 10 14.5 SW 13 19 7 10 1005.7 1004.5 0.0
17/06:30pm 27.3 21.8 -5.7 11 14.1 SSW 15 22 8 12 1005.7 1004.5 0.0
17/06:00pm 27.9 22.3 -6.5 10 14.6 WSW 15 22 8 12 1005.7 1004.5 0.0
17/05:30pm 28.3 22.7 -6.2 10 14.8 WSW 15 24 8 13 1005.8 1004.6 0.0
17/05:00pm 27.7 23.2 -6.6 10 14.5 SW 9 19 5 10 1005.7 1004.5 0.0
17/04:30pm 27.9 22.7 -6.5 10 14.6 WSW 13 22 7 12 1005.9 1004.7 0.0
17/04:00pm 27.5 22.7 -5.6 11 14.3 SW 11 20 6 11 1006.3 1005.1 0.0
17/03:30pm 27.9 23.6 -5.2 11 14.4 WSW 9 22 5 12 1006.3 1005.1 0.0
17/03:00pm 27.1 22.1 -4.7 12 13.9 SW 13 24 7 13 1006.7 1005.5 0.0
17/02:30pm 27.0 20.7 -3.7 13 13.6 WSW 20 32 11 17 1007.2 1006.0 0.0
17/02:00pm 25.5 20.5 -3.9 14 12.8 WSW 13 24 7 13 1007.2 1006.0 0.0
17/01:30pm 25.9 21.0 -3.6 14 13.0 SW 13 24 7 13 1007.4 1006.2 0.0
17/01:00pm 24.6 19.4 -2.9 16 12.1 S 15 28 8 15 1007.6 1006.4 0.0
17/12:30pm 23.7 19.0 -2.0 18 11.4 SSW 13 24 7 13 1007.8 1006.6 0.0
17/12:00pm 23.0 18.1 -0.5 21 10.7 SSW 15 20 8 11 1007.9 1006.8 0.0
17/11:30am 23.2 18.1 0.9 23 10.4 WSW 17 28 9 15 1008.0 1006.9 0.0
17/11:00am 21.3 17.0 1.0 26 9.4 SSW 13 20 7 11 1008.1 1007.0 0.0
17/10:30am 20.5 15.8 0.9 27 9.0 S 15 24 8 13 1008.3 1007.2 0.0
17/10:00am 19.8 15.6 1.7 30 8.4 SSW 13 22 7 12 1008.5 1007.4 0.0
17/09:30am 18.8 13.4 1.3 31 8.0 SSW 19 24 10 13 1008.6 1007.5 0.0
17/09:00am 18.4 13.0 1.4 32 7.7 SSW 19 24 10 13 1008.9 1007.7 0.0
17/08:30am 17.3 12.2 0.9 33 7.3 S 17 24 9 13 1008.6 1007.5 0.0
17/08:00am 16.9 12.0 2.1 37 6.8 SSW 17 22 9 12 1008.2 1007.1 0.0
17/07:30am 16.5 11.2 2.9 40 6.3 SSW 20 28 11 15 1007.8 1006.6 0.0
17/07:00am 15.5 10.3 2.7 42 5.9 SSW 19 26 10 14 1007.4 1006.2 0.0
17/06:30am 15.0 10.6 2.5 43 5.7 SSW 15 20 8 11 1006.8 1005.6 0.0
17/06:00am 14.7 10.3 2.6 44 5.5 SSW 15 20 8 11 1006.3 1005.1 0.0
17/05:30am 15.1 11.0 2.3 42 5.8 SW 13 17 7 9 1005.9 1004.7 0.0
17/05:00am 15.6 11.0 1.7 39 6.2 SW 15 20 8 11 1005.7 1004.5 0.0
17/04:30am 16.4 11.9 2.1 38 6.5 WSW 15 19 8 10 1005.2 1004.0 0.0
17/04:00am 17.0 12.1 2.2 37 6.8 SW 17 24 9 13 1004.9 1003.7 0.0
17/03:30am 17.8 13.0 2.5 36 7.1 SSW 17 24 9 13 1004.9 1003.7 0.0
17/03:00am 18.6 12.9 2.9 35 7.4 SSW 22 30 12 16 1004.8 1003.6 0.0
17/02:30am 19.4 11.9 3.2 34 7.7 SW 32 43 17 23 1004.3 1003.1 0.0
17/02:00am 20.1 14.4 5.0 37 7.5 SW 24 33 13 18 1004.3 1003.1 0.0
17/01:30am 20.9 14.8 6.8 40 7.3 SSW 28 35 15 19 1004.2 1003.0 0.0
17/01:00am 21.7 16.3 7.9 41 7.3 SSW 26 35 14 19 1004.0 1002.8 0.0
17/12:30am 22.1 15.3 7.9 40 7.5 SSW 33 44 18 24 1003.6 1002.4 0.0
17/12:10am 22.6 15.9 8.0 39 7.8 SSW 33 52 18 28 1003.6 1002.4 0.0
17/12:00am 22.7 15.2 8.0 39 7.9 SSW 37 50 20 27 1003.3 1002.1 0.0
 
Date/Time
EDT
Temp
°C
App
Temp
°C
Dew
Point
Rel
Hum
%
Delta-T
°C
Wind Press
QNH
hPa
Press
MSL
hPa
Rain
since 9 am
mm
Dir
 
Spd
km/h
Gust
km/h
Spd
kts
Gust
kts
16/11:51pm 23.3 17.2 8.2 38 8.1 SW 30 50 16 27 1003.0 1001.8 0.0
16/11:30pm 24.3 15.6 7.9 35 8.8 SW 43 57 23 31 1002.8 1001.6 0.0
16/11:07pm 25.9 16.5 7.0 30 10.1 SW 46 65 25 35 1002.3 1001.1 0.0
16/11:00pm 26.8 17.2 6.2 27 10.9 SW 46 65 25 35 1002.0 1000.8 0.0
16/10:38pm 29.7 21.4 2.1 17 13.8 SW 35 54 19 29 1001.1 999.9 0.0
16/10:30pm 30.3 22.4 2.5 17 14.0 SW 33 48 18 26 1000.8 999.5 0.0
16/10:28pm 30.5 22.9 2.7 17 14.1 SW 32 48 17 26 1000.7 999.4 0.0
16/10:07pm 31.4 26.4 3.4 17 14.5 W 19 46 10 25 1000.0 998.8 0.0
16/10:00pm 30.8 26.8 2.9 17 14.3 WNW 13 17 7 9 999.3 998.1 0.0

Other Formats:

Comma delimited format used in spreadsheet applications
http://www.bom.gov.au/fwo/IDN60801/IDN60801.95709.axf

JavaScript Object Notation format (JSON) in row-major order
http://www.bom.gov.au/fwo/IDN60801/IDN60801.95709.json